Trenton, Canada
Current Conditions -  °F | °C
As of 4:00 AM on Thursday 27 Nov 2014 (Local Time) from CYTR Reporting Station
Overcast Overcast  
Wind Chill: 18°   Ceiling: 3000
Heat Index: 25°   Visibility: 15mi
Dew Point: 19°   Wind: 6mph
Humidity: 80%   Direction: 340°NNW
Pressure: 30.05"   Gusts: NA
Location:  44.11°N, 77.53°W
Report Text: CYTR 270900Z 34005KT 15SM OVC030 M04/M07 A3005 RMK SC8 SLP182
Loading
Personal Weather Stations






























Interactive Weather Map New forecast layout! Learn more

10-Day Weather Forecast

Advertisements
Track Severe Weather on mobile